Chisholm Hibbing Airport
KHIB : now visible

Airfield :











YOU CAN JOIN US ON...

 
LOGIN :

Register | Disclaimer

   EN    FR    IT 

 









Legend :    VFR   Marginal VFR   IFR   Intensive IFR   Very Intensive IFR
Visi :
Ceiling :
>= 8 km
>= 3000ft
5 to 8 km
1000 to 3000 ft
1500m to 5 km
500 to 1000 ft
800 to 1500m
200 to 500 ft
< 800m
< 200 ft
Symbols :   Thunderstorms  Fog  Heavy snow  Heavy precipitations  Wind > 20 kt






- Airport Elevation : 1354 ft
- IATA code : HIB


KHIB - Chisholm Hibbing

CURRENT METAR :
  • 152253Z AUTO 35011KT 9SM OVC006 M01/M02 A2977 RMK AO2 SLP100 T10061017

EXPIRED METARs :
  • 152153Z AUTO 34011KT 6SM BR OVC007 00/M02 A2976 RMK AO2 SNE16B28E52 CIG 005V011 SLP095 P0000 T00001017
  • 152122Z AUTO 33010KT 2 1/2SM BR OVC007 00/M01 A2975 RMK AO2 SNE16 CIG 005V011 P0000 T00001011
  • 152057Z AUTO 34009KT 1 3/4SM -SN BR OVC006 00/M01 A2974 RMK AO2 CIG 005V011 P0000 T00001011
  • 151953Z AUTO 34009KT 5SM BR OVC006 00/M01 A2972 RMK AO2 SLP082 T00001011

TAF KHIB
Valid from the 15 at 21:00 until the 16 at 18:00 UTC


152103Z 1521/1618 34009KT 6SM BR OVC007
TEMPO 1521/1601 2SM -FZDZSN
FM160300 34008KT 5SM BR VCSH OVC009
FM160700 35006KT P6SM OVC007
KZMP FIR / North America



MET'MAP, your aeronautical weather chart ! - Copyright ORBIFLY December 2007 - Disclaimer

ORBIFLY MET'MAP TEAM :

Programming & Development : Alexandra Zaïnal
Concept & original design : Baudouin d'Aumeries
Assistance for programming : Marc-Olivier Méhu
Technical & hardware support : Manuel Goepfert

Contact : metmap@orbifly.com




SOURCES & CREDITS :

   NOAA       Earth
Advisory